createdAt,value
2022-08-17T00:01:51.496Z,23.25
2022-08-17T00:04:39.882Z,22.93
2022-08-17T00:07:27.546Z,23.02
2022-08-17T00:10:14.486Z,22.94
2022-08-17T00:13:10.495Z,23.18
2022-08-17T00:16:04.690Z,23.14
2022-08-17T00:18:57.648Z,22.76
2022-08-17T00:22:32.061Z,23.17
2022-08-17T00:25:08.453Z,23.33
2022-08-17T00:27:55.887Z,23.27
2022-08-17T00:30:53.217Z,23.19
2022-08-17T00:33:42.506Z,23.37
2022-08-17T00:36:29.907Z,23.49
2022-08-17T00:39:16.968Z,23.53
2022-08-17T00:42:16.926Z,23.56
2022-08-17T00:45:07.479Z,23.39
2022-08-17T00:47:54.479Z,23.39
2022-08-17T00:50:50.461Z,23.44
2022-08-17T00:53:42.857Z,23.34
2022-08-17T00:56:34.633Z,23.48
2022-08-17T00:59:26.007Z,23.69
2022-08-17T01:02:15.547Z,23.79
2022-08-17T01:05:03.029Z,23.67
2022-08-17T01:07:51.019Z,23.34
2022-08-17T01:10:58.588Z,23.32
2022-08-17T01:13:48.550Z,23.35
2022-08-17T01:16:37.531Z,23.31
2022-08-17T01:19:28.895Z,23.16
2022-08-17T01:22:21.228Z,23.31
2022-08-17T01:25:08.953Z,23.31
2022-08-17T01:27:56.021Z,23.36
2022-08-17T01:30:56.672Z,23.29
2022-08-17T01:33:46.211Z,23.33
2022-08-17T01:36:33.255Z,23.37
2022-08-17T01:39:36.779Z,23.40
2022-08-17T01:42:37.830Z,23.18
2022-08-17T01:45:28.350Z,23.18
2022-08-17T01:48:16.505Z,23.26
2022-08-17T01:51:05.803Z,23.42
2022-08-17T01:53:57.515Z,23.62
2022-08-17T01:56:48.499Z,23.77
2022-08-17T01:59:36.019Z,23.69
2022-08-17T02:02:30.260Z,23.57
2022-08-17T02:05:18.815Z,23.47
2022-08-17T02:08:07.416Z,23.17
2022-08-17T02:10:55.090Z,23.12
2022-08-17T02:13:46.158Z,23.00
2022-08-17T02:16:37.012Z,23.03
2022-08-17T02:19:25.098Z,22.87
2022-08-17T02:22:12.282Z,22.98
2022-08-17T02:25:02.370Z,23.07
2022-08-17T02:27:49.556Z,22.99
2022-08-17T02:30:59.406Z,22.95
2022-08-17T02:33:44.482Z,23.07
2022-08-17T02:36:32.044Z,23.16
2022-08-17T02:39:20.210Z,23.11
2022-08-17T02:42:07.548Z,23.02
2022-08-17T02:44:54.648Z,22.75
2022-08-17T02:47:42.079Z,22.73
2022-08-17T02:50:29.531Z,22.71
2022-08-17T02:53:16.687Z,22.45
2022-08-17T02:56:04.237Z,22.81
2022-08-17T02:58:51.319Z,22.81
2022-08-17T03:01:38.322Z,23.04
2022-08-17T03:04:25.514Z,23.07
2022-08-17T03:07:12.485Z,23.28
2022-08-17T03:09:59.513Z,23.29
2022-08-17T03:12:47.039Z,23.26
2022-08-17T03:15:35.402Z,23.24
2022-08-17T03:18:25.066Z,23.21
2022-08-17T03:21:13.312Z,23.02
2022-08-17T03:24:00.270Z,23.00
2022-08-17T03:26:47.541Z,23.10
2022-08-17T03:29:34.457Z,23.10
2022-08-17T03:32:21.549Z,23.17
2022-08-17T03:35:09.495Z,23.06
2022-08-17T03:38:01.311Z,23.03
2022-08-17T03:40:56.237Z,22.74
2022-08-17T03:43:46.339Z,22.62
2022-08-17T03:46:51.727Z,22.38
2022-08-17T03:49:57.345Z,22.13
2022-08-17T03:53:02.661Z,22.19
2022-08-17T03:56:09.113Z,22.22
2022-08-17T03:58:56.107Z,21.93
2022-08-17T04:01:48.958Z,21.85
2022-08-17T04:04:40.736Z,21.94
2022-08-17T04:07:30.734Z,21.98
2022-08-17T04:10:17.791Z,21.95
2022-08-17T04:13:05.770Z,21.79
2022-08-17T04:15:53.227Z,21.81
2022-08-17T04:18:40.402Z,21.79
2022-08-17T04:21:27.512Z,21.89
2022-08-17T04:24:14.536Z,21.93
2022-08-17T04:27:02.006Z,21.92
2022-08-17T04:29:54.303Z,21.74
2022-08-17T04:33:04.811Z,21.53
2022-08-17T04:35:59.398Z,21.56
2022-08-17T04:38:46.713Z,21.42
2022-08-17T04:41:52.523Z,21.49
2022-08-17T04:44:39.491Z,21.68
2022-08-17T04:47:26.562Z,21.75
2022-08-17T04:50:13.477Z,21.54
2022-08-17T04:53:00.899Z,21.73
2022-08-17T04:55:48.542Z,21.54
2022-08-17T04:58:35.615Z,21.40
2022-08-17T05:01:24.865Z,21.42
2022-08-17T05:04:25.157Z,21.37
2022-08-17T05:07:24.607Z,21.12
2022-08-17T05:10:13.600Z,21.28
2022-08-17T05:13:13.132Z,20.87
2022-08-17T05:16:02.396Z,20.89
2022-08-17T05:18:49.377Z,21.08
2022-08-17T05:21:36.551Z,21.10
2022-08-17T05:24:38.559Z,21.33
2022-08-17T05:27:35.329Z,21.52
2022-08-17T05:30:24.106Z,21.47
2022-08-17T05:33:18.337Z,21.59
2022-08-17T05:36:08.103Z,21.38
2022-08-17T05:38:55.362Z,21.34
2022-08-17T05:41:42.476Z,21.41
2022-08-17T05:44:29.607Z,21.48
2022-08-17T05:47:18.264Z,21.77
2022-08-17T05:50:10.049Z,21.38
2022-08-17T05:53:24.453Z,21.76
2022-08-17T05:56:29.753Z,21.90
2022-08-17T05:59:26.267Z,22.05
2022-08-17T06:02:34.453Z,22.12
2022-08-17T06:05:27.118Z,21.96
2022-08-17T06:08:17.891Z,22.12
2022-08-17T06:11:20.448Z,22.35
2022-08-17T06:14:35.858Z,22.08
2022-08-17T06:17:25.210Z,22.11
2022-08-17T06:20:16.099Z,22.17
2022-08-17T06:23:09.429Z,22.09
2022-08-17T06:26:03.885Z,22.12
2022-08-17T06:28:56.571Z,22.17
2022-08-17T06:31:43.696Z,22.13
2022-08-17T06:34:32.344Z,21.86
2022-08-17T06:37:27.487Z,21.87
2022-08-17T06:40:32.412Z,22.10
2022-08-17T06:43:26.271Z,22.27
2022-08-17T06:46:24.116Z,22.45
2022-08-17T06:49:18.324Z,22.28
2022-08-17T06:52:46.354Z,22.23
2022-08-17T06:55:58.658Z,22.27
2022-08-17T06:58:45.574Z,22.30
2022-08-17T07:01:37.017Z,22.31
2022-08-17T07:04:30.190Z,22.27
2022-08-17T07:07:38.614Z,22.07
2022-08-17T07:10:27.630Z,22.27
2022-08-17T07:13:29.759Z,22.39
2022-08-17T07:16:22.180Z,22.53
2022-08-17T07:19:11.042Z,22.60
2022-08-17T07:22:07.463Z,22.80
2022-08-17T07:25:00.715Z,22.88
2022-08-17T07:27:51.864Z,22.96
2022-08-17T07:30:49.418Z,22.85
2022-08-17T07:33:36.971Z,22.75
2022-08-17T07:36:29.816Z,23.20
2022-08-17T07:39:26.684Z,23.40
2022-08-17T07:42:13.858Z,23.54
2022-08-17T07:45:22.951Z,23.43
2022-08-17T07:48:19.926Z,23.60
2022-08-17T07:51:22.050Z,23.74
2022-08-17T07:54:24.143Z,23.95
2022-08-17T07:57:30.042Z,23.79
2022-08-17T08:00:30.811Z,23.79
2022-08-17T08:03:28.622Z,23.76
2022-08-17T08:06:26.562Z,23.67
2022-08-17T08:09:34.332Z,23.71
2022-08-17T08:12:35.361Z,23.76
2022-08-17T08:15:33.336Z,23.77
2022-08-17T08:18:38.734Z,23.85
2022-08-17T08:21:49.238Z,23.87
2022-08-17T08:24:52.193Z,24.07
2022-08-17T08:27:41.889Z,23.93
2022-08-17T08:30:33.081Z,23.96
2022-08-17T08:33:40.396Z,24.07
2022-08-17T08:37:02.028Z,24.23
2022-08-17T08:39:44.373Z,24.15
2022-08-17T08:43:10.448Z,24.21
2022-08-17T08:46:29.005Z,24.36
2022-08-17T08:50:05.014Z,24.57
2022-08-17T08:53:15.979Z,24.65
2022-08-17T08:56:31.752Z,24.76
2022-08-17T08:59:33.077Z,24.51
2022-08-17T09:02:22.894Z,24.57
2022-08-17T09:05:40.596Z,24.67
2022-08-17T09:08:53.519Z,24.79
2022-08-17T09:12:02.378Z,25.02
2022-08-17T09:15:05.014Z,25.07
2022-08-17T09:19:00.389Z,24.97
2022-08-17T09:21:13.526Z,24.97
2022-08-17T09:24:14.737Z,24.96
2022-08-17T09:27:20.437Z,25.29
2022-08-17T09:30:10.918Z,25.49
2022-08-17T09:33:02.003Z,25.68
2022-08-17T09:35:55.568Z,25.62
2022-08-17T09:38:58.409Z,25.66
2022-08-17T09:41:51.255Z,25.78
2022-08-17T09:44:43.226Z,25.43
2022-08-17T09:47:45.452Z,25.12
2022-08-17T09:51:03.355Z,25.10
2022-08-17T09:53:50.403Z,25.14
2022-08-17T09:57:18.121Z,25.36
2022-08-17T10:00:16.567Z,25.64
2022-08-17T10:03:19.125Z,25.58
2022-08-17T10:06:26.508Z,25.54
2022-08-17T10:09:38.944Z,25.89
2022-08-17T10:12:31.788Z,26.09
2022-08-17T10:15:22.613Z,26.01
2022-08-17T10:18:18.530Z,25.99
2022-08-17T10:21:30.187Z,26.15
2022-08-17T10:25:21.578Z,26.37
2022-08-17T10:28:09.027Z,26.62
2022-08-17T10:31:33.612Z,26.55
2022-08-17T10:34:23.472Z,26.71
2022-08-17T10:37:25.451Z,26.76
2022-08-17T10:40:42.629Z,26.87
2022-08-17T10:43:35.949Z,26.80
2022-08-17T10:46:31.812Z,26.73
2022-08-17T10:49:18.870Z,26.49
2022-08-17T10:52:30.611Z,26.57
2022-08-17T10:55:19.257Z,26.77
2022-08-17T10:58:22.171Z,26.69
2022-08-17T11:01:12.841Z,26.83
2022-08-17T11:04:08.631Z,27.00
2022-08-17T11:07:25.826Z,26.76
2022-08-17T11:10:42.452Z,26.69
2022-08-17T11:14:07.634Z,27.05
2022-08-17T11:17:17.442Z,27.15
2022-08-17T11:20:25.127Z,27.27
2022-08-17T11:23:29.502Z,27.41
2022-08-17T11:26:37.082Z,27.55
2022-08-17T11:29:29.367Z,27.45
2022-08-17T11:32:32.719Z,27.58
2022-08-17T11:35:20.496Z,27.60
2022-08-17T11:38:28.409Z,27.68
2022-08-17T11:41:48.994Z,27.97
2022-08-17T11:45:31.601Z,28.27
2022-08-17T11:48:56.762Z,28.22
2022-08-17T11:52:01.863Z,28.33
2022-08-17T11:54:49.171Z,28.34
2022-08-17T11:57:42.164Z,28.25
2022-08-17T12:00:47.480Z,28.52
2022-08-17T12:03:34.418Z,28.65
2022-08-17T12:06:34.422Z,28.77
2022-08-17T12:09:26.455Z,28.91
2022-08-17T12:12:17.670Z,28.93
2022-08-17T12:15:11.730Z,28.87
2022-08-17T12:17:59.571Z,28.58
2022-08-17T12:21:01.139Z,28.64
2022-08-17T12:23:58.243Z,28.39
2022-08-17T12:26:55.390Z,28.66
2022-08-17T12:29:44.552Z,28.41
2022-08-17T12:32:34.668Z,28.68
2022-08-17T12:35:34.807Z,28.57
2022-08-17T12:38:33.260Z,28.84
2022-08-17T12:41:36.451Z,28.79
2022-08-17T12:44:26.788Z,28.92
2022-08-17T12:47:21.959Z,29.02
2022-08-17T12:50:28.699Z,28.63
2022-08-17T12:53:21.733Z,28.89
2022-08-17T12:56:13.377Z,28.89
2022-08-17T12:59:02.423Z,28.81
2022-08-17T13:01:50.906Z,28.60
2022-08-17T13:04:40.377Z,28.34
2022-08-17T13:07:35.268Z,28.18
2022-08-17T13:10:34.115Z,27.98
2022-08-17T13:13:29.860Z,28.00
2022-08-17T13:16:20.938Z,27.59
2022-08-17T13:19:12.902Z,27.41
2022-08-17T13:22:01.973Z,27.45
2022-08-17T13:24:55.009Z,27.11
2022-08-17T13:27:42.651Z,26.98
2022-08-17T13:30:33.308Z,26.57
2022-08-17T13:33:44.836Z,26.29
2022-08-17T13:36:33.622Z,25.47
2022-08-17T13:39:24.534Z,25.02
2022-08-17T13:42:29.928Z,24.42
2022-08-17T13:45:35.407Z,23.29
2022-08-17T13:48:32.569Z,21.78
2022-08-17T13:51:27.225Z,21.54
2022-08-17T13:54:35.009Z,20.93
2022-08-17T13:57:24.151Z,20.26
2022-08-17T14:00:18.301Z,20.56
2022-08-17T14:03:05.850Z,20.47
2022-08-17T14:05:53.032Z,20.65
2022-08-17T14:08:40.242Z,20.79
2022-08-17T14:11:27.194Z,20.56
2022-08-17T14:14:15.458Z,20.18
2022-08-17T14:17:03.007Z,20.24
2022-08-17T14:19:51.193Z,20.35
2022-08-17T14:22:43.328Z,20.50
2022-08-17T14:25:30.456Z,20.63
2022-08-17T14:28:17.392Z,20.78
2022-08-17T14:31:07.261Z,20.76
2022-08-17T14:33:54.242Z,20.71
2022-08-17T14:36:48.304Z,20.89
2022-08-17T14:39:35.749Z,21.02
2022-08-17T14:42:24.850Z,21.05
2022-08-17T14:45:30.315Z,21.01
2022-08-17T14:48:19.560Z,20.89
2022-08-17T14:51:06.886Z,20.75
2022-08-17T14:53:54.035Z,20.86
2022-08-17T14:56:40.985Z,21.06
2022-08-17T14:59:32.292Z,21.18
2022-08-17T15:02:20.371Z,21.14
2022-08-17T15:05:07.840Z,21.20
2022-08-17T15:07:55.825Z,21.10
2022-08-17T15:10:43.143Z,21.15
2022-08-17T15:13:30.592Z,21.08
2022-08-17T15:16:17.747Z,21.33
2022-08-17T15:19:06.523Z,21.47
2022-08-17T15:21:53.583Z,21.59
2022-08-17T15:24:40.499Z,21.49
2022-08-17T15:27:32.313Z,21.26
2022-08-17T15:30:20.440Z,21.20
2022-08-17T15:33:07.636Z,21.48
2022-08-17T15:35:55.143Z,21.40
2022-08-17T15:38:44.554Z,21.04
2022-08-17T15:41:31.550Z,20.93
2022-08-17T15:44:18.819Z,20.88
2022-08-17T15:47:05.961Z,21.17
2022-08-17T15:49:57.913Z,21.10
2022-08-17T15:52:47.616Z,20.84
2022-08-17T15:55:36.789Z,20.77
2022-08-17T15:58:32.228Z,20.83
2022-08-17T16:01:57.406Z,20.70
2022-08-17T16:04:31.823Z,20.42
2022-08-17T16:07:26.542Z,20.46
2022-08-17T16:10:18.803Z,20.55
2022-08-17T16:13:17.435Z,20.52
2022-08-17T16:16:05.295Z,20.62
2022-08-17T16:18:54.592Z,20.68
2022-08-17T16:21:43.907Z,20.70
2022-08-17T16:24:31.234Z,20.76
2022-08-17T16:27:18.169Z,20.65
2022-08-17T16:30:07.200Z,20.01
2022-08-17T16:32:59.001Z,20.02
2022-08-17T16:35:46.175Z,20.20
2022-08-17T16:38:35.807Z,20.27
2022-08-17T16:41:45.376Z,20.47
2022-08-17T16:44:32.667Z,20.28
2022-08-17T16:47:20.165Z,20.08
2022-08-17T16:50:08.243Z,19.83
2022-08-17T16:53:06.957Z,19.58
2022-08-17T16:55:54.262Z,19.55
2022-08-17T16:58:41.338Z,19.72
2022-08-17T17:01:30.419Z,19.86
2022-08-17T17:04:19.215Z,20.02
2022-08-17T17:07:18.659Z,19.93
2022-08-17T17:10:10.700Z,20.17
2022-08-17T17:13:01.934Z,20.10
2022-08-17T17:16:00.403Z,20.24
2022-08-17T17:19:13.712Z,20.32
2022-08-17T17:22:07.557Z,20.37
2022-08-17T17:25:24.979Z,20.40
2022-08-17T17:28:33.633Z,20.35
2022-08-17T17:31:23.893Z,20.28
2022-08-17T17:34:16.077Z,20.47
2022-08-17T17:37:08.765Z,20.64
2022-08-17T17:40:00.063Z,20.66
2022-08-17T17:42:49.087Z,20.57
2022-08-17T17:45:58.573Z,20.58
2022-08-17T17:49:10.708Z,20.33
2022-08-17T17:52:14.339Z,19.92
2022-08-17T17:55:26.255Z,20.12
2022-08-17T17:58:36.044Z,20.38
2022-08-17T18:01:37.816Z,20.41
2022-08-17T18:04:59.415Z,20.47
2022-08-17T18:07:58.935Z,20.56
2022-08-17T18:10:57.164Z,20.57
2022-08-17T18:13:44.024Z,20.60
2022-08-17T18:16:33.036Z,20.60
2022-08-17T18:19:21.123Z,20.67
2022-08-17T18:22:18.772Z,20.77
2022-08-17T18:25:46.019Z,20.91
2022-08-17T18:28:38.662Z,20.92
2022-08-17T18:31:25.730Z,20.87
2022-08-17T18:37:37.925Z,20.77
2022-08-17T18:40:35.353Z,20.96
2022-08-17T18:43:52.943Z,20.97
2022-08-17T18:46:40.923Z,20.80
2022-08-17T18:49:29.218Z,20.73
2022-08-17T18:52:28.168Z,20.76
2022-08-17T18:55:22.663Z,20.73
2022-08-17T18:58:20.320Z,20.68
2022-08-17T19:01:19.367Z,20.55
2022-08-17T19:04:13.243Z,20.34
2022-08-17T19:07:12.154Z,20.25
2022-08-17T19:10:15.881Z,20.33
2022-08-17T19:13:13.989Z,20.26
2022-08-17T19:16:15.362Z,20.14
2022-08-17T19:19:21.490Z,20.46
2022-08-17T19:22:26.506Z,20.75
2022-08-17T19:25:19.391Z,20.79
2022-08-17T19:28:59.891Z,20.36
2022-08-17T19:31:47.640Z,20.43
2022-08-17T19:34:36.521Z,20.72
2022-08-17T19:37:39.017Z,20.82
2022-08-17T19:40:55.081Z,20.75
2022-08-17T19:44:18.406Z,20.67
2022-08-17T19:47:43.170Z,20.77
2022-08-17T19:50:39.184Z,20.79
2022-08-17T19:54:03.739Z,20.80
2022-08-17T19:57:10.254Z,20.71
2022-08-17T20:00:07.185Z,20.62
2022-08-17T20:03:05.894Z,20.62
2022-08-17T20:06:14.051Z,20.53
2022-08-17T20:09:15.920Z,20.59
2022-08-17T20:12:11.313Z,20.44
2022-08-17T20:15:16.805Z,20.53
2022-08-17T20:18:12.585Z,20.29
2022-08-17T20:21:26.143Z,20.50
2022-08-17T20:24:20.186Z,20.60
2022-08-17T20:27:16.356Z,20.53
2022-08-17T20:30:10.839Z,20.53
2022-08-17T20:33:00.161Z,20.52
2022-08-17T20:36:20.008Z,20.70
2022-08-17T20:39:31.942Z,20.56
2022-08-17T20:42:21.875Z,20.44
2022-08-17T20:45:46.166Z,20.61
2022-08-17T20:48:39.172Z,20.85
2022-08-17T20:51:31.793Z,20.93
2022-08-17T20:54:18.855Z,20.88
2022-08-17T20:57:13.673Z,20.87
2022-08-17T21:00:17.693Z,20.72
2022-08-17T21:03:22.595Z,20.58
2022-08-17T21:06:16.876Z,20.53
2022-08-17T21:09:13.093Z,20.63
2022-08-17T21:12:05.272Z,20.44
2022-08-17T21:15:07.120Z,20.64
2022-08-17T21:18:09.721Z,20.77
2022-08-17T21:21:17.597Z,20.93
2022-08-17T21:24:10.371Z,20.90
2022-08-17T21:27:05.775Z,20.44
2022-08-17T21:30:02.348Z,20.43
2022-08-17T21:33:16.346Z,20.44
2022-08-17T21:36:13.290Z,20.38
2022-08-17T21:39:06.574Z,20.18
2022-08-17T21:41:56.756Z,20.19
2022-08-17T21:44:49.422Z,20.33
2022-08-17T21:47:43.704Z,20.30
2022-08-17T21:50:30.735Z,20.00
2022-08-17T21:53:32.868Z,20.01
2022-08-17T21:56:29.476Z,20.00
2022-08-17T21:59:24.538Z,20.18
2022-08-17T22:02:41.864Z,20.31
2022-08-17T22:05:39.337Z,20.29
2022-08-17T22:08:26.492Z,20.27
2022-08-17T22:11:14.156Z,20.15
2022-08-17T22:14:05.805Z,20.22
2022-08-17T22:17:35.929Z,20.22
2022-08-17T22:20:23.042Z,20.41
2022-08-17T22:23:33.267Z,20.20
2022-08-17T22:26:22.615Z,20.42
2022-08-17T22:29:47.641Z,20.42
2022-08-17T22:32:35.080Z,20.40
2022-08-17T22:35:43.278Z,20.60
2022-08-17T22:38:31.199Z,20.56
2022-08-17T22:41:24.023Z,20.22
2022-08-17T22:44:35.628Z,20.35
2022-08-17T22:47:38.778Z,20.52
2022-08-17T22:50:29.585Z,20.59
2022-08-17T22:53:39.044Z,20.53
2022-08-17T22:56:44.550Z,20.29
2022-08-17T22:59:40.669Z,20.27
2022-08-17T23:02:31.184Z,20.35
2022-08-17T23:05:21.538Z,20.41
2022-08-17T23:08:08.715Z,20.19
2022-08-17T23:10:56.183Z,20.00
2022-08-17T23:13:43.449Z,20.03
2022-08-17T23:16:30.780Z,20.20
2022-08-17T23:19:20.976Z,20.12
2022-08-17T23:22:11.303Z,20.20
2022-08-17T23:24:59.877Z,20.17
2022-08-17T23:27:48.936Z,19.83
2022-08-17T23:30:41.135Z,20.15
2022-08-17T23:33:31.366Z,20.13
2022-08-17T23:36:18.699Z,20.19
2022-08-17T23:39:07.193Z,20.06
2022-08-17T23:41:54.187Z,19.95
2022-08-17T23:44:43.847Z,20.02
2022-08-17T23:47:31.002Z,19.78
2022-08-17T23:50:18.636Z,19.69
2022-08-17T23:53:06.491Z,19.96
2022-08-17T23:56:09.098Z,20.01
2022-08-17T23:58:58.564Z,20.03
